createdAt,value
2017-10-19T21:51:18.995Z,100890.67
2017-10-19T21:53:44.784Z,100887.18
2017-10-19T21:56:10.740Z,100886.09
2017-10-19T21:58:36.527Z,100889.37
2017-10-19T22:01:02.284Z,100884.83
2017-10-19T22:03:28.035Z,100886.03
2017-10-19T22:05:53.780Z,100885.47
2017-10-19T22:08:19.537Z,100881.69
2017-10-19T22:10:45.297Z,100876.90
2017-10-19T22:13:11.043Z,100877.09
2017-10-19T22:15:36.889Z,100875.98
2017-10-19T22:18:02.829Z,100878.97
2017-10-19T22:20:28.603Z,100879.05
2017-10-19T22:22:54.343Z,100876.06
2017-10-19T22:25:20.080Z,100871.75
2017-10-19T22:27:45.821Z,100869.16
2017-10-19T22:30:11.692Z,100874.72
2017-10-19T22:32:37.524Z,100869.83
2017-10-19T22:35:03.292Z,100864.84
2017-10-19T22:37:29.068Z,100870.66
2017-10-19T22:39:55.508Z,100868.19
2017-10-19T22:42:21.256Z,100866.80
2017-10-19T22:44:47.000Z,100865.41
2017-10-19T22:47:12.793Z,100862.89
2017-10-19T22:49:38.536Z,100858.06
2017-10-19T22:52:04.297Z,100857.65
2017-10-19T22:54:31.009Z,100852.97
2017-10-19T22:57:00.845Z,100851.63
2017-10-19T22:59:26.597Z,100854.31
2017-10-19T23:01:52.345Z,100860.85
2017-10-19T23:04:18.101Z,100860.63
2017-10-19T23:06:43.845Z,100868.14
2017-10-19T23:09:09.632Z,100863.52
2017-10-19T23:11:35.392Z,100864.70
2017-10-19T23:14:01.182Z,100862.95
2017-10-19T23:16:26.944Z,100858.30
2017-10-19T23:18:52.767Z,100862.81
2017-10-19T23:21:18.539Z,100868.84
2017-10-19T23:23:44.339Z,100865.41
2017-10-19T23:26:10.217Z,100854.91
2017-10-19T23:28:35.964Z,100853.31
2017-10-19T23:31:01.712Z,100857.09
2017-10-19T23:33:27.456Z,100851.21
2017-10-19T23:35:53.341Z,100855.61
2017-10-19T23:38:19.094Z,100862.84
2017-10-19T23:40:45.012Z,100862.27
2017-10-19T23:43:10.804Z,100859.95
2017-10-19T23:45:36.559Z,100860.80
2017-10-19T23:48:02.307Z,100854.66
2017-10-19T23:50:28.060Z,100851.56
2017-10-19T23:52:53.814Z,100854.56
2017-10-19T23:55:19.573Z,100861.36
2017-10-19T23:57:45.327Z,100864.41
